Historyczne dane pomiarowe

Dodano dane terminowe – wersja testowa.

Dane z okresu 1951-2019

Wersja bazy: 1.34 [2019-03-16, lista zmian], aktualizacja planowana na 2019-04-15

Dane meteo z obszaru Polski uzyskane na podstawie danych udostępnionych przez Instytut Meteorologii i Gospodarki Wodnej – Państwowy Instytut Badawczy.

 

Wybierz Datę:    

       

TemperaturaWilgotnośćWiatrCiśnienieOpadyŚniegCzas trwania zjawisk
 Stacja t tx tn tng RH VA  wxwx mslp ppp RRR   cm mm wxwxwxwxwxwxwx
1961-08-14 9.9 17.5 4.9- 86.8- 3.7 1.0---- 0.0------------
1961-08-13 10.2 13.8 8.8- 91.0- 5.3 1.7---- 3.6------------
1961-08-12 16.0 23.1 11.4- 83.3- 6.7 3.7---- 19.9------------
1961-08-11 21.2 30.2 13.6- 72.8- 1.0 4.3---- 0.0------------
1961-08-10 20.8 29.8 12.9- 80.3- 3.0 1.0---- 0.0------------
1961-08-09 19.6 29.6 13.6- 86.0- 6.0 0.3---- 20.9------------
1961-08-08 19.1 25.0 15.0- 86.3- 4.7 2.0---- 10.4------------
1961-08-07 20.5 28.7 9.0- 76.3- 2.0 1.7---- 0.0------------
1961-08-06 18.0 27.4 7.6- 78.3- 0.0 2.7---- 0.0------------
1961-08-05 15.2 21.9 11.9- 82.8- 4.3 1.3---- 0.0------------
1961-08-04 14.5 19.4 9.8- 80.8- 4.7 0.3---- 0.0------------
1961-08-03 14.4 20.6 7.9- 89.0- 7.3 1.3---- 3.0------------
1961-08-02 14.8 22.9 3.4- 84.0- 1.7 1.7---- 0.0------------
1961-08-01 12.1 19.0 6.0- 82.0- 3.3 3.0---- 0.0------------
1961-07-31 10.2 13.5 8.2- 91.5- 7.7 2.3---- 5.7------------
1961-07-30 9.5 10.1 8.4- 89.5- 8.0 0.3---- 11.4------------
1961-07-29 11.3 17.0 9.4- 93.8- 8.0 0.7---- 27.4------------
1961-07-28 18.9 25.4 11.9- 80.8- 6.7 1.0---- 21.6------------
1961-07-27 18.3 23.2 7.2- 70.3- 4.0 3.3---- 0.2------------
1961-07-26 13.0 21.7 3.0- 74.0- 3.0 0.3---- 0.0------------
1961-07-25 11.1 15.6 2.6- 73.0- 5.7 0.3---- 0.0------------
1961-07-24 12.5 16.0 10.7- 77.3- 6.7 0.3---- 0.0------------
1961-07-23 13.9 18.3 8.1- 78.0- 7.7 1.7---- 0.0------------
1961-07-22 12.7 17.3 10.8- 81.8- 6.7 2.0---- 2.6------------
1961-07-21 13.1 16.8 6.6- 86.0- 6.7 0.0---- 3.8------------
1961-07-20 11.7 14.3 6.1- 91.3- 8.0 0.0---- 11.0------------
1961-07-19 13.2 19.4 6.9- 79.3- 5.3 1.0---- 0.2------------
1961-07-18 13.4 18.0 6.7- 74.8- 4.7 2.7---- 0.0------------
1961-07-17 13.7 19.8 8.5- 75.3- 4.7 3.7---- 0.0------------
1961-07-16 15.1 19.8 12.7- 79.0- 5.7 5.0---- 0.0------------
1961-07-15 16.3 21.7 7.6- 73.5- 6.7 2.0---- 8.7------------
1961-07-14 13.2 17.2 10.9- 76.8- 5.3 4.0---- 0.0------------
1961-07-13 16.9 26.5 7.3- 82.0- 4.3 3.0---- 10.8------------
1961-07-12 16.8 25.7 6.4- 77.8- 2.3 1.3---- 1.9------------
1961-07-11 12.7 19.8 4.5- 82.0- 2.3 1.7---- 0.0------------
1961-07-10 12.6 17.2 6.9- 86.5- 6.3 3.3---- 4.3------------
1961-07-09 12.3 19.6 3.8- 78.5- 5.0 1.7---- 2.4------------
1961-07-08 13.5 18.8 3.6- 70.5- 5.7 0.3---- 0.0------------
1961-07-07 11.4 16.4 1.0- 70.3- 6.3 1.0---- 0.0------------
1961-07-06 10.8 14.4 1.7- 71.8- 5.0 2.0---- 0.0------------
1961-07-05 11.2 17.3 7.9- 77.5- 5.3 1.3---- 0.0------------
1961-07-04 19.7 28.0 8.2- 79.0- 3.0 2.0---- 9.9------------
1961-07-03 18.6 29.4 6.3- 71.5- 0.3 1.0---- 0.0------------
1961-07-02 16.9 26.0 6.0- 72.8- 0.0 1.3---- 0.0------------
1961-07-01 16.3 23.9 5.0- 78.5- 3.3 0.7---- 0.0------------
1961-06-30 14.6 20.7 4.5- 77.8- 1.0 0.7---- 0.0------------
1961-06-29 12.5 17.6 2.1- 78.5- 4.7 0.3---- 0.0------------
1961-06-28 11.7 17.7 9.4- 80.0- 6.3 2.7---- 3.3------------
1961-06-27 19.6 29.0 9.6- 79.0- 4.0 1.7---- 6.3------------
1961-06-26 19.9 27.8 8.3- 71.3- 2.3 1.3---- 0.0------------
1961-06-25 18.1 27.0 5.1- 74.0- 0.7 1.7---- 0.0------------
1961-06-24 16.4 23.5 6.4- 72.8- 3.3 1.7---- 0.0------------
1961-06-23 15.7 20.5 12.1- 81.8- 4.0 2.0---- 0.0------------
1961-06-22 17.6 25.5 7.0- 71.5- 5.0 0.3---- 11.2------------
1961-06-21 14.7 22.7 3.4- 72.5- 0.7 1.0---- 0.0------------
1961-06-20 12.9 17.8 9.9- 72.3- 4.0 2.0---- 0.0------------
1961-06-19 18.5 26.8 7.9- 72.5- 4.0 1.3---- 0.0------------
1961-06-18 16.2 23.9 4.5- 71.8- 1.3 0.3---- 0.0------------
1961-06-17 13.8 20.3 2.5- 67.3- 3.3 0.7---- 0.0------------
1961-06-16 11.5 19.0 4.4- 73.5- 3.3 0.3---- 0.0------------
365.3 ms

 

Źródłem pochodzenia danych jest Instytut Meteorologii i Gospodarki Wodnej – Państwowy Instytut Badawczy. Dane Instytutu Meteorologii i Gospodarki Wodnej – Państwowego Instytutu Badawczego zostały przetworzone.

Dane źródłowe można odnaleźć na stronie https://dane.imgw.pl